Time;durP1;ratioP1;P1;durP2;ratioP2;P2;SDS_P1;SDS_P2;PMS_P1;PMS_P2;Temp;Humidity;BMP_temperature;BMP_pressure;BME280_temperature;BME280_humidity;BME280_pressure;Samples;Min_cycle;Max_cycle;Signal;HPM_P1;HPM_P2
2024/01/04 00:00:23;;;;;;;5.15;4.85;;;11.20;99.90;;;;;;5049273;28;20045;-91
2024/01/04 00:02:49;;;;;;;5.15;4.85;;;11.30;99.90;;;;;;5033779;28;20121;-92
2024/01/04 00:05:15;;;;;;;4.88;4.57;;;11.20;99.90;;;;;;5034944;28;20032;-91
2024/01/04 00:07:41;;;;;;;5.47;5.18;;;11.20;99.90;;;;;;5055916;28;20053;-91
2024/01/04 00:10:07;;;;;;;5.45;5.15;;;11.10;99.90;;;;;;5036164;28;20071;-92
2024/01/04 00:12:33;;;;;;;5.20;4.90;;;11.10;99.90;;;;;;5054109;28;20044;-90
2024/01/04 00:15:02;;;;;;;5.70;5.40;;;11.20;99.90;;;;;;5031773;28;20041;-92
2024/01/04 00:17:28;;;;;;;6.03;5.63;;;11.20;99.90;;;;;;5036108;28;20482;-92
2024/01/04 00:19:54;;;;;;;5.80;5.50;;;11.00;99.90;;;;;;5033551;28;20083;-91
2024/01/04 00:22:19;;;;;;;5.50;5.20;;;11.10;99.90;;;;;;5051696;28;20135;-92
2024/01/04 00:24:48;;;;;;;6.10;5.70;;;11.00;99.90;;;;;;5044823;28;20045;-92
2024/01/04 00:27:15;;;;;;;5.57;5.28;;;11.00;99.90;;;;;;5034921;28;20047;-92
2024/01/04 00:29:44;;;;;;;5.72;5.38;;;11.00;99.90;;;;;;5038280;28;20127;-92
2024/01/04 00:32:10;;;;;;;6.20;5.80;;;11.00;99.90;;;;;;5031799;28;20071;-92
2024/01/04 00:34:36;;;;;;;5.47;5.18;;;10.90;99.90;;;;;;5066232;28;20040;-90
2024/01/04 00:37:04;;;;;;;5.72;5.38;;;10.90;99.90;;;;;;5051525;28;20147;-91
2024/01/04 00:39:30;;;;;;;5.88;5.50;;;10.80;99.90;;;;;;5043428;28;20044;-92
2024/01/04 00:41:59;;;;;;;5.63;5.30;;;10.90;99.90;;;;;;5040189;28;20040;-91
2024/01/04 00:44:25;;;;;;;5.70;5.35;;;10.80;99.90;;;;;;5034867;28;20047;-92
2024/01/04 00:46:54;;;;;;;6.07;5.68;;;10.90;99.90;;;;;;5033129;28;20105;-91
2024/01/04 00:49:19;;;;;;;5.80;5.43;;;10.90;99.90;;;;;;5048475;28;20157;-91
2024/01/04 00:51:46;;;;;;;6.03;5.63;;;10.80;99.90;;;;;;5034571;28;20921;-92
2024/01/04 00:54:12;;;;;;;6.32;5.93;;;10.90;99.90;;;;;;5034756;28;20520;-92
2024/01/04 00:56:38;;;;;;;5.95;5.57;;;10.80;99.90;;;;;;5045053;28;20140;-91
2024/01/04 00:59:04;;;;;;;6.35;5.95;;;10.70;99.90;;;;;;5030268;28;20048;-91
2024/01/04 01:01:32;;;;;;;6.25;5.85;;;10.70;99.90;;;;;;5042552;28;20066;-93
2024/01/04 01:03:59;;;;;;;6.25;5.85;;;10.70;99.90;;;;;;5049193;28;20076;-92
2024/01/04 01:06:24;;;;;;;6.15;5.75;;;10.70;99.90;;;;;;5045871;28;20101;-92
2024/01/04 01:08:50;;;;;;;5.78;5.40;;;10.70;99.90;;;;;;5062108;28;20040;-91
2024/01/04 01:11:16;;;;;;;5.72;5.38;;;10.70;99.90;;;;;;5033438;28;20052;-92
2024/01/04 01:13:42;;;;;;;5.97;5.57;;;10.70;99.90;;;;;;5033808;28;20057;-92
2024/01/04 01:16:10;;;;;;;5.72;5.35;;;10.60;99.90;;;;;;5048684;28;20049;-91
2024/01/04 01:18:36;;;;;;;5.60;5.25;;;10.70;99.90;;;;;;5033260;28;20798;-92
2024/01/04 01:21:02;;;;;;;5.55;5.20;;;10.60;99.90;;;;;;5031874;28;20045;-91
2024/01/04 01:23:28;;;;;;;5.40;5.07;;;10.50;99.90;;;;;;5032302;28;20078;-91
2024/01/04 01:25:54;;;;;;;5.38;5.05;;;10.50;99.90;;;;;;5034669;28;20136;-91
2024/01/04 01:28:20;;;;;;;5.13;4.82;;;10.50;99.90;;;;;;5033234;28;20044;-92
2024/01/04 01:30:45;;;;;;;4.95;4.65;;;10.60;99.90;;;;;;5029119;28;20110;-90
2024/01/04 01:33:11;;;;;;;4.57;4.28;;;10.50;99.90;;;;;;5033950;28;20043;-90
2024/01/04 01:35:37;;;;;;;4.65;4.35;;;10.50;99.90;;;;;;5028862;28;20618;-92
2024/01/04 01:38:03;;;;;;;4.72;4.43;;;10.40;99.90;;;;;;5032030;28;20044;-91
2024/01/04 01:40:29;;;;;;;4.75;4.45;;;10.40;99.90;;;;;;5046514;28;20037;-90
2024/01/04 01:42:59;;;;;;;4.70;4.40;;;10.40;99.90;;;;;;5048235;28;20041;-91
2024/01/04 01:45:25;;;;;;;4.68;4.38;;;10.50;99.90;;;;;;5029818;28;20045;-93
2024/01/04 01:47:51;;;;;;;4.78;4.47;;;10.50;99.90;;;;;;5030932;28;20059;-92
2024/01/04 01:50:21;;;;;;;4.45;4.15;;;10.40;99.90;;;;;;5036255;28;20047;-88
2024/01/04 01:52:49;;;;;;;4.78;4.47;;;10.40;99.90;;;;;;5039688;28;20037;-91
2024/01/04 01:55:16;;;;;;;4.50;4.20;;;10.40;99.90;;;;;;5050307;28;20040;-92
2024/01/04 01:57:43;;;;;;;4.43;4.15;;;10.40;99.90;;;;;;5037684;28;20147;-91
2024/01/04 02:00:10;;;;;;;4.80;4.50;;;10.40;99.90;;;;;;5037790;28;20036;-92
2024/01/04 02:02:37;;;;;;;4.45;4.15;;;10.40;99.90;;;;;;5035458;28;20048;-90
2024/01/04 02:05:03;;;;;;;4.32;4.05;;;10.30;99.90;;;;;;5054696;28;20055;-91
2024/01/04 02:07:29;;;;;;;4.80;4.50;;;10.30;99.90;;;;;;5035468;28;20100;-90
2024/01/04 02:09:55;;;;;;;4.68;4.38;;;10.20;99.90;;;;;;5049710;28;20040;-91
2024/01/04 02:12:21;;;;;;;4.85;4.55;;;10.10;99.90;;;;;;5054355;28;20040;-91
2024/01/04 02:14:51;;;;;;;4.72;4.43;;;10.20;99.90;;;;;;5052505;28;20037;-91
2024/01/04 02:17:18;;;;;;;4.57;4.28;;;10.20;99.90;;;;;;5049568;28;20048;-92
2024/01/04 02:19:45;;;;;;;4.60;4.30;;;10.10;99.90;;;;;;5035937;28;20103;-92
2024/01/04 02:22:11;;;;;;;4.25;3.97;;;10.10;99.90;;;;;;5035562;28;20120;-91
2024/01/04 02:24:37;;;;;;;3.95;3.72;;;10.10;99.90;;;;;;5055300;28;20048;-91
2024/01/04 02:27:03;;;;;;;4.32;4.03;;;10.10;99.90;;;;;;5035848;28;20130;-91
2024/01/04 02:29:29;;;;;;;4.13;3.85;;;10.10;99.90;;;;;;5034248;28;20043;-91
2024/01/04 02:31:55;;;;;;;3.85;3.65;;;10.10;99.90;;;;;;5045202;28;20047;-90
2024/01/04 02:34:20;;;;;;;3.80;3.60;;;10.00;99.90;;;;;;5029769;28;20087;-89
2024/01/04 02:36:46;;;;;;;4.35;4.05;;;10.00;99.90;;;;;;5033508;28;20071;-89
2024/01/04 02:39:12;;;;;;;3.72;3.53;;;9.90;99.90;;;;;;5049289;28;20572;-90
2024/01/04 02:41:38;;;;;;;3.83;3.63;;;9.90;99.90;;;;;;5047131;28;20040;-90
2024/01/04 02:44:04;;;;;;;3.63;3.42;;;9.90;99.90;;;;;;5046206;28;20370;-91
2024/01/04 02:46:30;;;;;;;3.08;2.88;;;9.80;99.90;;;;;;5051930;28;20079;-90
2024/01/04 02:48:55;;;;;;;3.35;3.15;;;9.80;99.90;;;;;;5048884;28;20043;-89
2024/01/04 02:51:21;;;;;;;2.83;2.65;;;9.80;99.90;;;;;;5050172;28;20044;-92
2024/01/04 02:53:47;;;;;;;2.67;2.53;;;9.80;99.90;;;;;;5034010;28;20129;-88
2024/01/04 02:56:13;;;;;;;2.60;2.50;;;9.70;99.90;;;;;;5047984;28;20040;-90
2024/01/04 02:58:38;;;;;;;2.40;2.30;;;9.80;99.90;;;;;;5031821;28;20128;-89
2024/01/04 03:01:04;;;;;;;2.42;2.33;;;9.80;99.90;;;;;;5039634;28;20041;-90
2024/01/04 03:03:30;;;;;;;2.17;2.08;;;9.70;99.90;;;;;;5052072;28;20090;-90
2024/01/04 03:05:56;;;;;;;2.10;2.00;;;9.70;99.90;;;;;;5051198;28;20048;-90
2024/01/04 03:08:21;;;;;;;2.00;1.90;;;9.70;99.90;;;;;;5045129;28;20048;-89
2024/01/04 03:10:47;;;;;;;1.88;1.77;;;9.70;99.90;;;;;;5034685;28;20501;-91
2024/01/04 03:13:13;;;;;;;1.80;1.70;;;9.70;99.90;;;;;;5033692;28;20075;-89
2024/01/04 03:15:39;;;;;;;1.90;1.80;;;9.60;99.90;;;;;;5031124;28;20539;-90
2024/01/04 03:18:05;;;;;;;1.80;1.70;;;9.60;99.90;;;;;;5042088;28;20785;-91
2024/01/04 03:20:30;;;;;;;1.80;1.70;;;9.50;99.90;;;;;;5044728;28;20041;-90
2024/01/04 03:22:56;;;;;;;1.70;1.60;;;9.50;99.90;;;;;;5051136;28;20063;-92
2024/01/04 03:25:22;;;;;;;1.70;1.60;;;9.50;99.90;;;;;;5034937;28;20052;-91
2024/01/04 03:27:47;;;;;;;1.50;1.40;;;9.40;99.90;;;;;;5033245;28;20049;-89
2024/01/04 03:30:13;;;;;;;1.50;1.40;;;9.50;99.90;;;;;;5049860;28;20052;-90
2024/01/04 03:32:39;;;;;;;1.60;1.50;;;9.50;99.90;;;;;;5036694;28;20048;-90
2024/01/04 03:35:05;;;;;;;1.65;1.55;;;9.50;99.90;;;;;;5053699;28;20047;-91
2024/01/04 03:37:31;;;;;;;1.50;1.40;;;9.40;99.90;;;;;;5032995;28;20040;-91
2024/01/04 03:39:57;;;;;;;1.50;1.40;;;9.40;99.90;;;;;;5053167;28;20493;-91
2024/01/04 03:42:22;;;;;;;1.50;1.40;;;9.40;99.90;;;;;;5034146;28;20044;-89
2024/01/04 03:44:48;;;;;;;1.60;1.50;;;9.40;99.90;;;;;;5033441;28;20040;-91
2024/01/04 03:47:14;;;;;;;1.60;1.50;;;9.40;99.90;;;;;;5050308;28;20382;-91
2024/01/04 03:49:39;;;;;;;1.60;1.50;;;9.40;99.90;;;;;;5033851;28;20044;-91
2024/01/04 03:52:05;;;;;;;1.60;1.50;;;9.40;99.90;;;;;;5050043;28;20124;-90
2024/01/04 03:54:31;;;;;;;1.63;1.52;;;9.40;99.90;;;;;;5039902;28;20048;-91
2024/01/04 03:56:57;;;;;;;1.50;1.40;;;9.40;99.90;;;;;;5035345;28;20048;-89
2024/01/04 03:59:22;;;;;;;1.63;1.52;;;9.40;99.90;;;;;;5033915;28;20062;-91
2024/01/04 04:01:48;;;;;;;1.60;1.50;;;9.30;99.90;;;;;;5032060;28;20402;-90
2024/01/04 04:04:15;;;;;;;1.60;1.50;;;9.40;99.90;;;;;;5051658;28;20048;-90
2024/01/04 04:06:40;;;;;;;1.63;1.52;;;9.40;99.90;;;;;;5050444;28;20525;-91
2024/01/04 04:09:07;;;;;;;1.80;1.70;;;9.30;99.90;;;;;;5050534;28;20048;-90
2024/01/04 04:11:33;;;;;;;1.60;1.50;;;9.30;99.90;;;;;;5052556;28;20445;-90
2024/01/04 04:14:00;;;;;;;1.70;1.60;;;9.30;99.90;;;;;;5035306;28;20352;-91
2024/01/04 04:16:25;;;;;;;1.80;1.70;;;9.30;99.90;;;;;;5032248;28;20048;-90
2024/01/04 04:18:51;;;;;;;1.80;1.70;;;9.30;99.90;;;;;;5049820;28;20131;-90
2024/01/04 04:21:24;;;;;;;1.73;1.63;;;9.30;99.90;;;;;;5051844;28;20048;-90
2024/01/04 04:23:50;;;;;;;1.80;1.70;;;9.30;99.90;;;;;;5050498;28;20105;-90
2024/01/04 04:26:18;;;;;;;1.80;1.70;;;9.30;99.90;;;;;;5052852;28;20131;-91
2024/01/04 04:28:43;;;;;;;1.80;1.70;;;9.30;99.90;;;;;;5054711;28;20059;-91
2024/01/04 04:31:13;;;;;;;1.80;1.70;;;9.30;99.90;;;;;;5038040;28;20762;-91
2024/01/04 04:33:39;;;;;;;1.90;1.80;;;9.30;99.90;;;;;;5063145;28;20055;-90
2024/01/04 04:36:06;;;;;;;1.80;1.70;;;9.30;99.90;;;;;;5032660;28;20072;-90
2024/01/04 04:38:34;;;;;;;1.90;1.80;;;9.20;99.90;;;;;;5032974;28;20059;-91
2024/01/04 04:41:00;;;;;;;1.80;1.70;;;9.20;99.90;;;;;;5033703;28;20528;-90
2024/01/04 04:43:26;;;;;;;1.80;1.70;;;9.30;99.90;;;;;;5051065;28;20484;-90
2024/01/04 04:45:52;;;;;;;1.83;1.73;;;9.20;99.90;;;;;;5052510;28;20036;-89
2024/01/04 04:48:17;;;;;;;1.70;1.60;;;9.20;99.90;;;;;;5053735;28;20048;-89
2024/01/04 04:50:43;;;;;;;1.70;1.60;;;9.20;99.90;;;;;;5036522;28;20045;-90
2024/01/04 04:53:09;;;;;;;1.98;1.88;;;9.20;99.90;;;;;;5050085;28;20048;-91
2024/01/04 04:55:34;;;;;;;1.90;1.80;;;9.20;99.90;;;;;;5033512;28;20083;-91
2024/01/04 04:58:00;;;;;;;1.70;1.60;;;9.20;99.90;;;;;;5053629;28;20627;-90
2024/01/04 05:00:27;;;;;;;1.90;1.80;;;9.20;99.90;;;;;;5050738;28;20055;-91
2024/01/04 05:02:53;;;;;;;1.80;1.70;;;9.20;99.90;;;;;;5053512;28;20086;-91
2024/01/04 05:05:19;;;;;;;1.90;1.80;;;9.30;99.90;;;;;;5048560;28;20485;-91
2024/01/04 05:07:44;;;;;;;1.80;1.70;;;9.20;99.90;;;;;;5049756;28;20043;-91
2024/01/04 05:10:10;;;;;;;1.90;1.80;;;9.20;99.90;;;;;;5048538;28;20052;-91
2024/01/04 05:12:36;;;;;;;1.80;1.70;;;9.20;99.90;;;;;;5051220;28;20135;-90
2024/01/04 05:15:01;;;;;;;1.90;1.80;;;9.30;99.90;;;;;;5031773;28;20037;-90
2024/01/04 05:17:27;;;;;;;1.90;1.80;;;9.20;99.90;;;;;;5049715;28;20455;-90
2024/01/04 05:19:53;;;;;;;1.90;1.80;;;9.20;99.90;;;;;;5051907;28;20040;-92
2024/01/04 05:22:19;;;;;;;1.90;1.80;;;9.20;99.90;;;;;;5066454;28;20049;-90
2024/01/04 05:24:45;;;;;;;1.88;1.77;;;9.20;99.90;;;;;;5051501;28;20102;-90
2024/01/04 05:27:10;;;;;;;1.80;1.70;;;9.20;99.90;;;;;;5043790;28;20045;-91
2024/01/04 05:29:36;;;;;;;2.00;1.90;;;9.20;99.90;;;;;;5052939;28;20049;-91
2024/01/04 05:32:02;;;;;;;2.00;1.90;;;9.20;99.90;;;;;;5039070;28;20842;-91
2024/01/04 05:34:32;;;;;;;2.00;1.90;;;9.20;99.90;;;;;;5051505;28;20045;-91
2024/01/04 05:36:58;;;;;;;2.00;1.90;;;9.20;99.90;;;;;;5041090;28;20035;-91
2024/01/04 05:39:25;;;;;;;2.00;1.90;;;9.20;99.90;;;;;;5036504;28;20045;-92
2024/01/04 05:41:51;;;;;;;2.00;1.90;;;9.20;99.90;;;;;;5041028;28;20135;-92
2024/01/04 05:44:17;;;;;;;2.05;1.95;;;9.20;99.90;;;;;;5054012;28;20123;-92
2024/01/04 05:46:43;;;;;;;1.88;1.77;;;9.10;99.90;;;;;;5035452;28;20071;-91
2024/01/04 05:49:09;;;;;;;1.90;1.80;;;9.10;99.90;;;;;;5035292;28;20051;-92
2024/01/04 05:51:34;;;;;;;1.80;1.70;;;9.10;99.90;;;;;;5050947;28;20059;-91
2024/01/04 05:54:02;;;;;;;1.95;1.85;;;9.10;99.90;;;;;;5033485;28;20149;-91
2024/01/04 05:56:28;;;;;;;2.00;1.90;;;9.10;99.90;;;;;;5053355;28;20577;-92
2024/01/04 05:58:54;;;;;;;2.00;1.90;;;9.10;99.90;;;;;;5036693;28;20043;-91
2024/01/04 06:01:19;;;;;;;1.98;1.88;;;9.10;99.90;;;;;;5035217;28;20041;-90
2024/01/04 06:03:45;;;;;;;2.05;1.95;;;9.10;99.90;;;;;;5055149;28;20482;-90
2024/01/04 06:06:15;;;;;;;2.10;2.00;;;9.10;99.90;;;;;;5037736;28;20040;-91
2024/01/04 06:08:43;;;;;;;2.10;2.00;;;9.10;99.90;;;;;;5036801;28;20044;-91
2024/01/04 06:11:10;;;;;;;2.05;1.95;;;9.10;99.90;;;;;;5054481;28;20060;-92
2024/01/04 06:13:39;;;;;;;2.00;1.90;;;9.10;99.90;;;;;;5055754;28;20045;-92
2024/01/04 06:16:08;;;;;;;2.00;1.90;;;9.10;99.90;;;;;;5034849;28;20035;-90
2024/01/04 06:18:34;;;;;;;1.90;1.80;;;9.00;99.90;;;;;;5054340;28;20052;-92
2024/01/04 06:21:00;;;;;;;2.10;2.00;;;9.00;99.90;;;;;;5029679;28;20090;-93
2024/01/04 06:23:27;;;;;;;2.10;2.00;;;9.10;99.90;;;;;;5049924;28;20048;-92
2024/01/04 06:25:53;;;;;;;2.10;2.00;;;9.10;99.90;;;;;;5039847;28;20142;-92
2024/01/04 06:28:20;;;;;;;2.13;2.03;;;9.10;99.90;;;;;;5054653;28;20092;-92
2024/01/04 06:30:46;;;;;;;2.10;2.00;;;9.00;99.90;;;;;;5040942;28;20048;-91
2024/01/04 06:33:12;;;;;;;2.00;1.90;;;9.00;99.90;;;;;;5034444;28;20040;-91
2024/01/04 06:35:38;;;;;;;2.03;1.92;;;9.00;99.90;;;;;;5054198;28;20756;-91
2024/01/04 06:38:07;;;;;;;1.98;1.88;;;9.00;99.90;;;;;;5039318;28;20044;-91
2024/01/04 06:40:34;;;;;;;2.00;1.90;;;9.00;99.90;;;;;;5049240;28;20059;-91
2024/01/04 06:43:03;;;;;;;2.10;2.00;;;9.00;99.90;;;;;;5038637;28;20657;-91
2024/01/04 06:45:29;;;;;;;2.00;1.90;;;9.00;99.90;;;;;;5053311;28;20045;-91
2024/01/04 06:47:56;;;;;;;2.10;2.00;;;9.00;99.90;;;;;;5038998;28;20041;-91
2024/01/04 06:50:22;;;;;;;2.10;2.00;;;8.90;99.90;;;;;;5051490;28;20068;-92
2024/01/04 06:52:48;;;;;;;2.00;1.90;;;8.90;99.90;;;;;;5037412;28;20044;-92
2024/01/04 06:55:14;;;;;;;2.00;1.90;;;8.90;99.90;;;;;;5054844;28;20139;-92
2024/01/04 06:57:41;;;;;;;1.90;1.80;;;8.80;99.90;;;;;;5037652;28;20051;-92
2024/01/04 07:00:07;;;;;;;2.00;1.90;;;8.80;99.90;;;;;;5037285;28;20044;-92
2024/01/04 07:02:35;;;;;;;1.95;1.85;;;8.80;99.90;;;;;;5035847;28;20048;-92
2024/01/04 07:05:03;;;;;;;2.00;1.90;;;8.90;99.90;;;;;;5036565;28;20041;-91
2024/01/04 07:07:30;;;;;;;2.10;2.00;;;8.80;99.90;;;;;;5054796;28;20528;-91
2024/01/04 07:09:56;;;;;;;2.00;1.90;;;8.90;99.90;;;;;;5037065;28;20077;-92
2024/01/04 07:12:23;;;;;;;2.10;2.00;;;8.90;99.90;;;;;;5037129;28;20513;-90
2024/01/04 07:14:49;;;;;;;1.98;1.88;;;8.90;99.90;;;;;;5055316;28;20055;-92
2024/01/04 07:17:16;;;;;;;2.00;1.90;;;8.80;99.90;;;;;;5053974;28;20044;-91
2024/01/04 07:19:45;;;;;;;2.03;1.92;;;8.90;99.90;;;;;;5055512;28;20078;-92
2024/01/04 07:22:12;;;;;;;2.00;1.90;;;8.80;99.90;;;;;;5036155;28;20059;-91
2024/01/04 07:24:38;;;;;;;1.90;1.80;;;8.80;99.90;;;;;;5055944;28;20094;-92
2024/01/04 07:27:04;;;;;;;2.08;1.98;;;8.90;99.90;;;;;;5049667;28;20049;-92
2024/01/04 07:29:33;;;;;;;2.00;1.90;;;8.80;99.90;;;;;;5041400;28;20037;-92
2024/01/04 07:31:59;;;;;;;2.10;2.00;;;8.90;99.90;;;;;;5035338;28;20045;-91
2024/01/04 07:34:25;;;;;;;2.10;2.00;;;8.90;99.90;;;;;;5044160;28;20490;-91
2024/01/04 07:36:51;;;;;;;1.90;1.80;;;8.80;99.90;;;;;;5050132;28;20041;-91
2024/01/04 07:39:17;;;;;;;2.00;1.90;;;8.80;99.90;;;;;;5052272;28;20044;-90
2024/01/04 07:41:43;;;;;;;2.10;2.00;;;8.90;99.90;;;;;;5036475;28;20048;-92
2024/01/04 07:44:11;;;;;;;2.10;2.00;;;8.80;99.90;;;;;;5035918;28;20068;-91
2024/01/04 07:46:37;;;;;;;1.90;1.80;;;8.80;99.90;;;;;;5050596;28;20064;-91
2024/01/04 07:49:07;;;;;;;2.10;2.00;;;8.80;99.90;;;;;;5040287;28;20044;-92
2024/01/04 07:51:33;;;;;;;2.08;1.98;;;8.80;99.90;;;;;;5051883;28;20068;-93
2024/01/04 07:53:59;;;;;;;1.80;1.70;;;8.80;99.90;;;;;;5052527;28;20051;-92
2024/01/04 07:56:26;;;;;;;2.13;2.03;;;8.80;99.90;;;;;;5043025;28;20044;-91
2024/01/04 07:58:53;;;;;;;2.10;2.00;;;8.80;99.90;;;;;;5054546;28;20040;-92
2024/01/04 08:01:18;;;;;;;2.00;1.90;;;8.80;99.90;;;;;;5037260;28;20053;-92
2024/01/04 08:03:44;;;;;;;2.00;1.90;;;8.80;99.90;;;;;;5036551;28;20037;-90
2024/01/04 08:06:10;;;;;;;2.13;2.03;;;8.80;99.90;;;;;;5054113;28;20040;-91
2024/01/04 08:08:36;;;;;;;2.20;2.10;;;8.80;99.90;;;;;;5040440;28;20135;-91
2024/01/04 08:11:02;;;;;;;1.90;1.80;;;8.80;99.90;;;;;;5050136;28;20521;-93
2024/01/04 08:13:28;;;;;;;2.05;1.95;;;8.80;99.90;;;;;;5053027;28;20179;-91
2024/01/04 08:15:54;;;;;;;1.80;1.70;;;8.80;99.90;;;;;;5051027;28;20041;-91
2024/01/04 08:18:21;;;;;;;1.90;1.80;;;8.80;99.90;;;;;;5052083;28;20074;-91
2024/01/04 08:20:47;;;;;;;1.92;1.83;;;8.70;99.90;;;;;;5036740;28;20052;-91
2024/01/04 08:23:13;;;;;;;2.00;1.90;;;8.70;99.90;;;;;;5047818;28;20073;-91
2024/01/04 08:25:39;;;;;;;1.90;1.80;;;8.70;99.90;;;;;;5051701;28;20040;-90
2024/01/04 08:28:11;;;;;;;2.00;1.90;;;8.80;99.90;;;;;;5046922;28;20060;-92
2024/01/04 08:30:37;;;;;;;2.00;1.90;;;8.80;99.90;;;;;;5052204;28;20090;-91
2024/01/04 08:33:03;;;;;;;2.10;2.00;;;8.80;99.90;;;;;;5053234;28;20040;-92
2024/01/04 08:35:28;;;;;;;2.10;2.00;;;8.80;99.90;;;;;;5030532;28;20059;-91
2024/01/04 08:37:54;;;;;;;2.00;1.90;;;8.80;99.90;;;;;;5049754;28;20048;-90
2024/01/04 08:40:20;;;;;;;1.90;1.80;;;8.80;99.90;;;;;;5050962;28;20053;-90
2024/01/04 08:42:46;;;;;;;2.00;1.90;;;8.70;99.90;;;;;;5050010;28;20070;-91
2024/01/04 08:45:12;;;;;;;2.00;1.90;;;8.80;99.90;;;;;;5032660;28;20486;-91
2024/01/04 08:47:38;;;;;;;1.80;1.70;;;8.80;99.90;;;;;;5032032;28;20044;-92
2024/01/04 08:50:04;;;;;;;1.80;1.70;;;8.80;99.90;;;;;;5046551;28;20055;-91
2024/01/04 08:52:30;;;;;;;2.00;1.90;;;8.90;99.90;;;;;;5053778;28;20623;-92
2024/01/04 08:54:56;;;;;;;2.00;1.90;;;8.80;99.90;;;;;;5035109;28;20132;-92
2024/01/04 08:57:22;;;;;;;1.95;1.85;;;8.80;99.90;;;;;;5051017;28;20127;-92
2024/01/04 08:59:48;;;;;;;2.13;2.03;;;8.80;99.90;;;;;;5034027;28;20060;-91
2024/01/04 09:02:14;;;;;;;1.98;1.88;;;8.90;99.90;;;;;;5029051;28;20048;-92
2024/01/04 09:04:40;;;;;;;2.05;1.95;;;8.90;99.90;;;;;;5046825;28;20041;-92
2024/01/04 09:07:08;;;;;;;2.03;1.92;;;8.90;99.90;;;;;;5050709;28;20139;-92
2024/01/04 09:09:34;;;;;;;2.20;2.10;;;9.00;99.90;;;;;;5033887;28;20060;-90
2024/01/04 09:12:00;;;;;;;2.03;1.92;;;8.90;99.90;;;;;;5048313;28;20040;-91
2024/01/04 09:14:26;;;;;;;2.00;1.90;;;9.00;99.90;;;;;;5039364;28;20075;-92
2024/01/04 09:16:52;;;;;;;2.00;1.90;;;9.00;99.90;;;;;;5048537;28;20079;-92
2024/01/04 09:19:19;;;;;;;2.08;1.98;;;8.90;99.90;;;;;;5036243;28;20044;-90
2024/01/04 09:21:47;;;;;;;2.08;1.98;;;9.00;99.90;;;;;;5051140;28;20051;-92
2024/01/04 09:24:13;;;;;;;2.00;1.90;;;9.10;99.90;;;;;;5033511;28;20098;-91
2024/01/04 09:26:43;;;;;;;2.10;2.00;;;9.10;99.90;;;;;;5031858;28;20045;-94
2024/01/04 09:29:10;;;;;;;2.13;2.03;;;9.10;99.90;;;;;;5054015;28;20040;-90
2024/01/04 09:31:36;;;;;;;2.03;1.92;;;9.00;79.80;;;;;;5048464;28;20099;-92
2024/01/04 09:34:03;;;;;;;2.10;2.00;;;9.10;67.30;;;;;;5034228;28;20497;-91
2024/01/04 09:36:29;;;;;;;2.17;2.08;;;9.10;94.00;;;;;;5045424;28;20040;-91
2024/01/04 09:38:55;;;;;;;2.15;2.05;;;9.20;99.90;;;;;;5032430;28;20324;-92
2024/01/04 09:41:30;;;;;;;2.05;1.95;;;9.20;99.90;;;;;;5033457;28;20052;-91
2024/01/04 09:44:00;;;;;;;1.90;1.80;;;9.20;64.30;;;;;;5049112;28;20128;-91
2024/01/04 09:46:38;;;;;;;2.05;1.95;;;9.10;1.00;;;;;;5037028;28;20048;-91
2024/01/04 09:49:05;;;;;;;2.10;2.00;;;9.20;29.20;;;;;;5046078;28;20082;-92
2024/01/04 09:51:38;;;;;;;1.92;1.83;;;9.10;2.70;;;;;;5049699;28;20090;-91
2024/01/04 09:54:09;;;;;;;2.05;1.95;;;9.30;1.00;;;;;;5044855;28;20045;-91
2024/01/04 09:56:42;;;;;;;1.83;1.73;;;9.20;1.00;;;;;;5047470;28;20052;-91
2024/01/04 09:59:12;;;;;;;1.98;1.88;;;9.30;1.00;;;;;;5050153;28;20106;-91
2024/01/04 10:01:38;;;;;;;1.90;1.80;;;9.30;1.00;;;;;;5048546;28;20076;-91
2024/01/04 10:04:24;;;;;;;1.95;1.85;;;9.30;1.00;;;;;;5050497;28;20040;-91
2024/01/04 10:06:53;;;;;;;1.88;1.77;;;9.50;47.20;;;;;;5033123;28;20812;-91
2024/01/04 10:09:28;;;;;;;1.90;1.80;;;9.40;1.00;;;;;;5040365;28;20076;-91
2024/01/04 10:12:05;;;;;;;1.95;1.85;;;9.30;1.00;;;;;;5041990;28;20041;-91
2024/01/04 10:14:32;;;;;;;1.95;1.85;;;9.40;1.00;;;;;;5030636;28;20489;-92
2024/01/04 10:17:00;;;;;;;1.98;1.88;;;9.40;1.00;;;;;;5037392;28;20048;-90
2024/01/04 10:19:28;;;;;;;2.08;1.98;;;9.50;1.00;;;;;;5054514;28;20041;-92
2024/01/04 10:21:58;;;;;;;1.77;1.67;;;9.30;1.00;;;;;;5053561;28;20036;-92
2024/01/04 10:24:25;;;;;;;1.90;1.80;;;9.40;1.00;;;;;;5050885;28;20052;-92
2024/01/04 10:26:57;;;;;;;2.00;1.90;;;9.40;1.00;;;;;;5068974;28;20044;-92
2024/01/04 10:29:27;;;;;;;1.80;1.70;;;9.50;1.00;;;;;;5058574;28;20616;-92
2024/01/04 10:32:00;;;;;;;1.73;1.63;;;9.40;1.00;;;;;;5040190;28;20040;-92
2024/01/04 10:34:26;;;;;;;1.80;1.70;;;9.60;1.00;;;;;;5053515;28;20119;-92
2024/01/04 10:36:54;;;;;;;1.80;1.70;;;9.50;1.00;;;;;;5039523;28;20037;-91
2024/01/04 10:39:20;;;;;;;2.10;2.00;;;9.30;1.00;;;;;;5052136;28;20629;-91
2024/01/04 10:42:01;;;;;;;1.80;1.70;;;9.30;99.90;;;;;;5037223;28;20071;-91
2024/01/04 10:44:33;;;;;;;1.90;1.80;;;9.30;1.00;;;;;;5071899;28;20436;-90
2024/01/04 10:47:01;;;;;;;1.73;1.63;;;9.40;1.00;;;;;;5038030;28;20052;-91
2024/01/04 10:49:27;;;;;;;2.13;2.03;;;9.50;1.00;;;;;;5036280;28;20045;-91
2024/01/04 10:51:56;;;;;;;1.80;1.70;;;9.50;1.00;;;;;;5042950;28;20055;-91
2024/01/04 10:54:35;;;;;;;1.90;1.80;;;9.30;1.00;;;;;;5052909;28;20060;-91
2024/01/04 10:57:02;;;;;;;2.00;1.90;;;9.50;1.00;;;;;;5054232;28;20099;-91
2024/01/04 10:59:31;;;;;;;1.75;1.65;;;9.30;99.90;;;;;;5039318;28;20059;-91
2024/01/04 11:01:58;;;;;;;1.80;1.70;;;9.50;1.00;;;;;;5034164;28;20036;-92
2024/01/04 11:04:25;;;;;;;1.80;1.70;;;9.60;99.90;;;;;;5036891;28;20509;-93
2024/01/04 11:06:52;;;;;;;2.08;1.98;;;9.60;1.00;;;;;;5051307;28;20155;-91
2024/01/04 11:09:22;;;;;;;2.03;1.92;;;9.60;99.90;;;;;;5037302;28;20048;-91
2024/01/04 11:11:56;;;;;;;1.77;1.67;;;9.60;99.90;;;;;;5046571;28;20048;-91
2024/01/04 11:14:23;;;;;;;1.80;1.70;;;9.50;99.90;;;;;;5034969;28;20047;-91
2024/01/04 11:17:18;;;;;;;1.80;1.70;;;9.60;1.00;;;;;;5030350;28;20056;-90
2024/01/04 11:20:08;;;;;;;1.73;1.63;;;9.50;99.90;;;;;;5050348;28;20044;-91
2024/01/04 11:22:43;;;;;;;1.90;1.80;;;9.60;99.90;;;;;;5055537;28;20045;-92
2024/01/04 11:25:52;;;;;;;1.80;1.70;;;9.50;1.00;;;;;;5047471;28;20041;-90
2024/01/04 11:28:18;;;;;;;1.80;1.70;;;9.60;99.90;;;;;;5061112;28;20114;-91
2024/01/04 11:30:50;;;;;;;2.15;2.05;;;9.30;99.90;;;;;;5034594;28;20532;-90
2024/01/04 11:33:17;;;;;;;1.80;1.70;;;9.40;99.90;;;;;;5050987;28;20040;-91
2024/01/04 11:35:43;;;;;;;1.70;1.60;;;9.20;99.90;;;;;;5048546;28;20105;-90
2024/01/04 11:38:09;;;;;;;1.70;1.60;;;9.40;99.90;;;;;;5034385;28;20515;-90
2024/01/04 11:40:37;;;;;;;1.70;1.60;;;9.40;99.90;;;;;;5033417;28;20052;-91
2024/01/04 11:43:14;;;;;;;1.80;1.70;;;9.60;1.00;;;;;;5048613;28;20050;-89
2024/01/04 11:45:44;;;;;;;2.03;1.92;;;9.60;99.90;;;;;;5052063;28;20052;-91
2024/01/04 11:48:11;;;;;;;1.70;1.60;;;9.50;99.90;;;;;;5032490;28;20040;-93
2024/01/04 11:50:46;;;;;;;1.80;1.70;;;9.60;1.00;;;;;;5034348;28;20135;-91
2024/01/04 11:53:14;;;;;;;1.88;1.77;;;9.40;99.90;;;;;;5051669;28;20049;-91
2024/01/04 11:55:41;;;;;;;2.35;2.25;;;9.30;99.90;;;;;;5066170;28;20060;-90
2024/01/04 11:58:14;;;;;;;1.92;1.83;;;9.30;99.90;;;;;;5047684;28;20040;-92
2024/01/04 12:00:50;;;;;;;1.83;1.73;;;9.50;99.90;;;;;;5048728;28;21925;-90
2024/01/04 12:03:17;;;;;;;1.80;1.70;;;9.60;1.00;;;;;;5052294;28;20569;-92
2024/01/04 12:05:47;;;;;;;1.73;1.63;;;9.60;1.00;;;;;;5032159;28;20071;-93
2024/01/04 12:08:28;;;;;;;1.75;1.65;;;9.50;1.00;;;;;;5048845;28;20045;-92
2024/01/04 12:10:55;;;;;;;2.13;2.03;;;9.60;1.00;;;;;;5032749;28;20047;-91
2024/01/04 12:13:21;;;;;;;2.13;2.03;;;9.60;1.00;;;;;;5035914;28;20051;-91
2024/01/04 12:15:47;;;;;;;1.90;1.80;;;9.60;99.90;;;;;;5036736;28;20478;-91
2024/01/04 12:18:12;;;;;;;2.15;2.05;;;9.40;99.90;;;;;;5052965;28;20047;-91
2024/01/04 12:20:39;;;;;;;1.88;1.77;;;9.40;99.90;;;;;;5050286;28;20125;-92
2024/01/04 12:23:07;;;;;;;1.98;1.88;;;9.40;99.90;;;;;;5029946;28;20124;-91
2024/01/04 12:25:37;;;;;;;2.40;2.30;;;9.50;99.90;;;;;;5043718;28;20056;-93
2024/01/04 12:28:06;;;;;;;2.22;2.13;;;9.40;99.90;;;;;;5044940;28;20040;-91
2024/01/04 12:30:32;;;;;;;2.05;1.95;;;9.60;99.90;;;;;;5049269;28;20041;-92
2024/01/04 12:33:00;;;;;;;1.88;1.77;;;9.60;99.90;;;;;;5036328;28;20051;-90
2024/01/04 12:35:27;;;;;;;1.90;1.80;;;9.60;99.90;;;;;;5053102;28;20486;-92
2024/01/04 12:38:00;;;;;;;2.08;1.98;;;9.70;99.90;;;;;;5045008;28;20044;-91
2024/01/04 12:40:27;;;;;;;2.22;2.13;;;9.70;99.90;;;;;;5047529;28;20078;-91
2024/01/04 12:42:52;;;;;;;2.25;2.15;;;9.60;99.90;;;;;;5031064;28;20044;-91
2024/01/04 12:45:18;;;;;;;2.30;2.20;;;9.70;99.90;;;;;;5026593;28;20177;-90
2024/01/04 12:47:44;;;;;;;2.00;1.90;;;9.70;99.90;;;;;;5043603;28;20052;-91
2024/01/04 12:50:10;;;;;;;2.95;2.78;;;9.80;1.00;;;;;;5050002;28;20041;-91
2024/01/04 12:52:40;;;;;;;2.90;2.70;;;9.80;1.00;;;;;;5032310;28;20585;-91
2024/01/04 12:55:05;;;;;;;2.75;2.65;;;9.80;1.00;;;;;;5030671;28;20438;-89